Time;durP1;ratioP1;P1;durP2;ratioP2;P2;SDS_P1;SDS_P2;PMS_P1;PMS_P2;Temp;Humidity;BMP_temperature;BMP_pressure;BME280_temperature;BME280_humidity;BME280_pressure;Samples;Min_cycle;Max_cycle;Signal;HPM_P1;HPM_P2
2020/12/04 00:00:36;;;;;;;;;;;20.50;79.30;;;;;;1832568;76;20130;-77
2020/12/04 00:03:10;;;;;;;;;;;20.50;79.30;;;;;;1855565;76;20270;-77
2020/12/04 00:05:40;;;;;;;;;;;20.50;79.00;;;;;;1853737;75;20164;-76
2020/12/04 00:08:09;;;;;;;;;;;20.50;79.30;;;;;;1859956;77;20235;-79
2020/12/04 00:10:40;;;;;;;;;;;20.50;79.70;;;;;;1864668;75;20263;-70
2020/12/04 00:13:10;;;;;;;;;;;20.60;79.30;;;;;;1882272;75;20191;-70
2020/12/04 00:15:40;;;;;;;;;;;20.60;79.40;;;;;;1844957;75;20179;-68
2020/12/04 00:18:11;;;;;;;;;;;20.60;79.30;;;;;;1858601;75;20652;-69
2020/12/04 00:20:41;;;;;;;;;;;20.60;79.00;;;;;;1856886;75;20191;-69
2020/12/04 00:23:11;;;;;;;;;;;20.60;79.40;;;;;;1851833;76;20189;-69
2020/12/04 00:25:44;;;;;;;;;;;20.60;79.20;;;;;;1837724;77;20264;-71
2020/12/04 00:28:14;;;;;;;;;;;20.60;79.30;;;;;;1817823;77;20325;-71
2020/12/04 00:30:44;;;;;;;;;;;20.70;79.40;;;;;;1821606;76;20602;-70
2020/12/04 00:33:14;;;;;;;;;;;20.70;79.00;;;;;;1845422;76;20255;-70
2020/12/04 00:35:46;;;;;;;;;;;20.80;78.80;;;;;;1843456;78;20215;-70
2020/12/04 00:38:16;;;;;;;;;;;20.80;78.60;;;;;;1844860;78;20259;-70
2020/12/04 00:40:46;;;;;;;;;;;20.80;78.40;;;;;;1841570;76;20221;-70
2020/12/04 00:43:18;;;;;;;;;;;20.90;78.50;;;;;;1841187;76;20180;-70
2020/12/04 00:45:48;;;;;;;;;;;20.90;78.30;;;;;;1850075;76;20193;-71
2020/12/04 00:48:18;;;;;;;;;;;20.90;78.20;;;;;;1841937;76;20191;-70
2020/12/04 00:50:48;;;;;;;;;;;21.00;77.90;;;;;;1845807;76;20240;-70
2020/12/04 00:53:18;;;;;;;;;;;21.00;77.30;;;;;;1839294;76;20307;-70
2020/12/04 00:55:48;;;;;;;;;;;21.00;77.30;;;;;;1838765;76;20565;-70
2020/12/04 00:58:17;;;;;;;;;;;21.00;78.20;;;;;;1840018;76;20453;-70
2020/12/04 01:00:47;;;;;;;;;;;21.00;77.20;;;;;;1842234;76;20160;-70
2020/12/04 01:03:23;;;;;;;;;;;21.10;76.80;;;;;;1829352;77;20275;-69
2020/12/04 01:05:51;;;;;;;;;;;21.10;76.50;;;;;;1839634;76;20248;-70
2020/12/04 01:08:21;;;;;;;;;;;21.20;76.30;;;;;;1836887;78;20165;-71
2020/12/04 01:10:51;;;;;;;;;;;21.20;75.80;;;;;;1836583;78;20302;-71
2020/12/04 01:13:20;;;;;;;;;;;21.20;75.90;;;;;;1849922;76;20571;-70
2020/12/04 01:15:50;;;;;;;;;;;21.20;76.10;;;;;;1839154;76;20164;-70
2020/12/04 01:18:22;;;;;;;;;;;21.20;75.90;;;;;;1821664;78;20260;-70
2020/12/04 01:20:56;;;;;;;;;;;21.20;75.80;;;;;;1814196;77;20473;-70
2020/12/04 01:23:23;;;;;;;;;;;21.20;75.80;;;;;;1780742;80;20458;-70
2020/12/04 01:25:53;;;;;;;;;;;21.30;75.70;;;;;;1813026;78;20426;-69
2020/12/04 01:28:23;;;;;;;;;;;21.20;75.40;;;;;;1836738;77;20298;-70
2020/12/04 01:30:55;;;;;;;;;;;21.30;75.50;;;;;;1852596;77;20374;-69
2020/12/04 01:33:25;;;;;;;;;;;21.30;75.30;;;;;;1846197;76;20578;-69
2020/12/04 01:35:55;;;;;;;;;;;21.20;74.90;;;;;;1847978;77;20142;-70
2020/12/04 01:38:25;;;;;;;;;;;21.30;75.30;;;;;;1841290;76;20273;-71
2020/12/04 01:40:56;;;;;;;;;;;21.30;75.30;;;;;;1849502;77;20514;-69
2020/12/04 01:43:27;;;;;;;;;;;21.30;75.30;;;;;;1757149;79;20284;-68
2020/12/04 01:45:58;;;;;;;;;;;21.30;75.20;;;;;;1733202;81;20339;-72
2020/12/04 01:48:31;;;;;;;;;;;21.30;75.20;;;;;;1769649;79;20386;-69
2020/12/04 01:51:01;;;;;;;;;;;21.30;75.10;;;;;;1771462;79;20416;-69
2020/12/04 01:53:31;;;;;;;;;;;21.40;75.10;;;;;;1771816;79;20227;-67
2020/12/04 01:56:01;;;;;;;;;;;21.50;75.00;;;;;;1780994;79;20332;-68
2020/12/04 01:58:31;;;;;;;;;;;21.60;74.80;;;;;;1776693;79;20293;-68
2020/12/04 02:01:05;;;;;;;;;;;21.60;74.60;;;;;;1782712;79;20316;-67
2020/12/04 02:03:37;;;;;;;;;;;21.70;74.40;;;;;;1784871;79;20609;-69
2020/12/04 02:06:13;;;;;;;;;;;21.80;74.30;;;;;;1785747;79;20226;-69
2020/12/04 02:08:48;;;;;;;;;;;21.90;74.00;;;;;;1764988;79;20210;-68
2020/12/04 02:11:21;;;;;;;;;;;22.00;73.20;;;;;;1737295;81;20251;-69
2020/12/04 02:14:09;;;;;;;;;;;22.00;73.20;;;;;;1763358;76;20286;-67
2020/12/04 02:16:45;;;;;;;;;;;22.10;73.00;;;;;;1790678;78;20331;-71
2020/12/04 02:19:14;;;;;;;;;;;22.10;73.00;;;;;;1824413;77;20144;-73
2020/12/04 02:21:43;;;;;;;;;;;22.10;72.30;;;;;;1815470;77;20170;-69
2020/12/04 02:24:16;;;;;;;;;;;22.10;71.10;;;;;;1824403;77;20307;-70
2020/12/04 02:26:46;;;;;;;;;;;22.10;71.70;;;;;;1799747;78;20558;-69
2020/12/04 02:29:16;;;;;;;;;;;22.20;70.30;;;;;;1832966;77;20179;-69
2020/12/04 02:31:46;;;;;;;;;;;22.30;69.40;;;;;;1836034;77;20654;-68
2020/12/04 02:34:18;;;;;;;;;;;22.40;69.60;;;;;;1836231;77;20226;-68
2020/12/04 02:36:48;;;;;;;;;;;22.50;69.70;;;;;;1829825;77;20225;-69
2020/12/04 02:39:21;;;;;;;;;;;22.60;67.80;;;;;;1792576;78;20521;-69
2020/12/04 02:41:51;;;;;;;;;;;22.80;66.50;;;;;;1801529;78;20249;-68
2020/12/04 02:44:23;;;;;;;;;;;22.90;65.90;;;;;;1794930;78;20266;-69
2020/12/04 02:46:56;;;;;;;;;;;22.90;64.90;;;;;;1795754;78;20438;-68
2020/12/04 02:49:26;;;;;;;;;;;23.00;64.90;;;;;;1795489;78;20258;-69
2020/12/04 02:51:57;;;;;;;;;;;23.10;64.80;;;;;;1786056;78;20593;-69
2020/12/04 02:54:27;;;;;;;;;;;23.20;65.40;;;;;;1811060;78;20220;-70
2020/12/04 02:56:57;;;;;;;;;;;23.30;64.80;;;;;;1810005;77;20206;-69
2020/12/04 02:59:27;;;;;;;;;;;23.30;65.40;;;;;;1810680;78;20223;-70
2020/12/04 03:01:57;;;;;;;;;;;23.30;64.30;;;;;;1811863;78;20520;-70
2020/12/04 03:04:27;;;;;;;;;;;23.40;64.10;;;;;;1810502;78;20281;-69
2020/12/04 03:06:57;;;;;;;;;;;23.40;64.10;;;;;;1806932;78;20196;-70
2020/12/04 03:09:28;;;;;;;;;;;23.60;62.80;;;;;;1814388;78;20172;-68
2020/12/04 03:12:00;;;;;;;;;;;23.60;62.40;;;;;;1843797;76;20198;-69
2020/12/04 03:14:29;;;;;;;;;;;23.70;62.20;;;;;;1879663;74;20608;-68
2020/12/04 03:16:59;;;;;;;;;;;23.70;62.00;;;;;;1882647;74;20133;-69
2020/12/04 03:19:29;;;;;;;;;;;23.90;62.00;;;;;;1882441;75;20250;-70
2020/12/04 03:22:00;;;;;;;;;;;23.90;61.60;;;;;;1887615;74;20125;-69
2020/12/04 03:24:33;;;;;;;;;;;24.00;61.60;;;;;;1892824;74;20293;-70
2020/12/04 03:27:05;;;;;;;;;;;24.10;60.40;;;;;;1878244;74;20771;-70
2020/12/04 03:29:35;;;;;;;;;;;24.10;60.40;;;;;;1875445;75;20162;-72
2020/12/04 03:32:06;;;;;;;;;;;24.20;61.20;;;;;;1881338;75;20338;-70
2020/12/04 03:34:58;;;;;;;;;;;24.20;59.50;;;;;;1883208;75;20171;-68
2020/12/04 03:40:25;;;;;;;;;;;24.40;59.20;;;;;;1850769;76;20236;-70
2020/12/04 03:42:54;;;;;;;;;;;24.40;59.10;;;;;;1882360;75;20720;-73
2020/12/04 03:45:23;;;;;;;;;;;24.40;58.20;;;;;;1883308;75;20222;-70
2020/12/04 03:47:53;;;;;;;;;;;24.50;59.10;;;;;;1852812;76;20363;-71
2020/12/04 03:50:26;;;;;;;;;;;24.60;58.40;;;;;;1876632;75;20190;-71
2020/12/04 03:52:56;;;;;;;;;;;24.70;57.90;;;;;;1855417;76;20205;-72
2020/12/04 03:55:26;;;;;;;;;;;24.80;58.30;;;;;;1873873;75;20202;-71
2020/12/04 03:57:55;;;;;;;;;;;24.90;58.40;;;;;;1905621;75;20224;-71
2020/12/04 04:00:26;;;;;;;;;;;25.00;57.90;;;;;;1912222;73;20235;-71
2020/12/04 04:02:55;;;;;;;;;;;25.00;57.40;;;;;;1913669;75;20282;-69
2020/12/04 04:05:25;;;;;;;;;;;25.10;57.90;;;;;;1914447;75;20177;-68
2020/12/04 04:07:55;;;;;;;;;;;25.20;57.00;;;;;;1910485;75;20197;-70
2020/12/04 04:10:25;;;;;;;;;;;25.30;56.50;;;;;;1911293;75;20225;-70
2020/12/04 04:12:55;;;;;;;;;;;25.30;57.40;;;;;;1919886;73;20273;-70
2020/12/04 04:15:25;;;;;;;;;;;25.40;57.60;;;;;;1968231;71;20204;-71
2020/12/04 04:17:59;;;;;;;;;;;25.50;57.00;;;;;;1959346;72;20515;-70
2020/12/04 04:20:28;;;;;;;;;;;25.50;56.80;;;;;;1996355;71;20617;-70
2020/12/04 04:23:01;;;;;;;;;;;25.60;56.10;;;;;;1966232;71;20304;-72
2020/12/04 04:25:31;;;;;;;;;;;25.60;55.90;;;;;;1973896;71;20241;-74
2020/12/04 04:28:00;;;;;;;;;;;25.70;55.90;;;;;;1941743;73;20176;-72
2020/12/04 04:30:30;;;;;;;;;;;25.70;56.10;;;;;;1932811;73;20158;-72
2020/12/04 04:33:05;;;;;;;;;;;25.80;56.00;;;;;;1921233;73;20169;-72
2020/12/04 04:35:37;;;;;;;;;;;25.90;56.50;;;;;;1931038;73;20215;-70
2020/12/04 04:38:10;;;;;;;;;;;26.00;55.70;;;;;;1897132;74;20173;-71
2020/12/04 04:40:40;;;;;;;;;;;26.00;55.80;;;;;;1897128;74;20175;-69
2020/12/04 04:43:11;;;;;;;;;;;26.10;56.60;;;;;;1901390;74;20181;-71
2020/12/04 04:45:41;;;;;;;;;;;26.20;56.70;;;;;;1905641;75;20369;-72
2020/12/04 04:48:12;;;;;;;;;;;26.20;55.80;;;;;;1905234;75;20244;-71
2020/12/04 04:50:46;;;;;;;;;;;26.20;55.20;;;;;;1899479;75;20268;-70
2020/12/04 04:53:16;;;;;;;;;;;26.30;55.60;;;;;;1861647;76;20449;-70
2020/12/04 04:55:46;;;;;;;;;;;26.40;55.10;;;;;;1904238;74;20208;-70
2020/12/04 04:58:15;;;;;;;;;;;26.50;55.30;;;;;;1903113;74;20294;-72
2020/12/04 05:00:45;;;;;;;;;;;26.60;54.60;;;;;;1867577;76;20209;-71
2020/12/04 05:03:15;;;;;;;;;;;26.60;55.60;;;;;;1893154;74;20212;-71
2020/12/04 05:05:48;;;;;;;;;;;26.70;54.90;;;;;;1869788;76;20492;-71
2020/12/04 05:08:22;;;;;;;;;;;26.80;55.50;;;;;;1937450;73;20511;-71
2020/12/04 05:10:56;;;;;;;;;;;26.80;54.30;;;;;;1932144;73;20185;-72
2020/12/04 05:13:27;;;;;;;;;;;26.90;53.60;;;;;;1901604;73;20327;-73
2020/12/04 05:15:57;;;;;;;;;;;26.90;54.70;;;;;;1921922;74;20227;-72
2020/12/04 05:18:27;;;;;;;;;;;26.90;53.90;;;;;;1919924;74;20294;-71
2020/12/04 05:21:04;;;;;;;;;;;26.90;53.20;;;;;;1919696;74;20547;-70
2020/12/04 05:23:34;;;;;;;;;;;26.90;53.90;;;;;;1879716;74;20211;-72
2020/12/04 05:26:05;;;;;;;;;;;26.90;53.10;;;;;;1913843;74;20378;-71
2020/12/04 05:28:35;;;;;;;;;;;26.90;53.90;;;;;;1921113;74;20205;-70
2020/12/04 05:31:06;;;;;;;;;;;26.80;54.10;;;;;;1918630;74;20134;-71
2020/12/04 05:33:36;;;;;;;;;;;26.90;55.30;;;;;;1866000;76;20184;-72
2020/12/04 05:36:07;;;;;;;;;;;26.90;54.10;;;;;;1860331;76;20252;-71
2020/12/04 05:38:56;;;;;;;;;;;27.00;53.40;;;;;;1860669;76;20157;-72
2020/12/04 05:41:26;;;;;;;;;;;27.00;53.70;;;;;;1872899;75;20195;-70
2020/12/04 05:43:57;;;;;;;;;;;27.10;53.70;;;;;;1871188;75;20258;-72
2020/12/04 05:46:30;;;;;;;;;;;27.00;53.50;;;;;;1871026;75;20133;-71
2020/12/04 05:49:16;;;;;;;;;;;26.90;53.40;;;;;;1880081;75;20229;-71
2020/12/04 05:51:36;;;;;;;;;;;26.90;53.60;;;;;;1850636;75;20162;-71
2020/12/04 05:54:07;;;;;;;;;;;26.90;54.10;;;;;;1886596;76;20158;-70
2020/12/04 05:56:53;;;;;;;;;;;27.00;52.00;;;;;;1879259;76;20164;-68
2020/12/04 05:59:14;;;;;;;;;;;27.00;52.10;;;;;;1868022;75;20262;-72
2020/12/04 06:01:49;;;;;;;;;;;27.20;52.10;;;;;;1876317;75;20204;-71
2020/12/04 06:04:19;;;;;;;;;;;27.20;51.60;;;;;;1858092;76;20170;-70
2020/12/04 06:06:51;;;;;;;;;;;27.30;51.20;;;;;;1883085;75;20153;-73
2020/12/04 06:09:22;;;;;;;;;;;27.30;50.60;;;;;;1859833;75;20201;-72
2020/12/04 06:11:55;;;;;;;;;;;27.20;51.40;;;;;;1873667;75;20164;-72
2020/12/04 06:14:26;;;;;;;;;;;27.20;50.50;;;;;;1889944;75;20212;-70
2020/12/04 06:17:01;;;;;;;;;;;27.10;50.50;;;;;;1905527;74;20246;-70
2020/12/04 06:19:32;;;;;;;;;;;27.20;51.10;;;;;;1893576;75;20213;-71
2020/12/04 06:22:04;;;;;;;;;;;27.30;50.20;;;;;;1900091;75;20173;-70
2020/12/04 06:24:35;;;;;;;;;;;27.30;50.90;;;;;;1905420;74;20259;-72
2020/12/04 06:27:10;;;;;;;;;;;27.40;50.80;;;;;;1890157;74;20154;-72
2020/12/04 06:29:38;;;;;;;;;;;27.50;50.00;;;;;;1850120;76;20419;-72
2020/12/04 06:32:08;;;;;;;;;;;27.60;49.90;;;;;;1860990;76;20252;-71
2020/12/04 06:34:40;;;;;;;;;;;27.60;50.90;;;;;;1842886;76;20224;-71
2020/12/04 06:37:11;;;;;;;;;;;27.70;51.80;;;;;;1855161;76;20352;-70
2020/12/04 06:39:40;;;;;;;;;;;27.70;49.90;;;;;;1879846;74;20458;-72
2020/12/04 06:42:13;;;;;;;;;;;27.70;50.40;;;;;;1905830;74;20209;-72
2020/12/04 06:44:44;;;;;;;;;;;27.60;50.10;;;;;;1900890;74;20596;-73
2020/12/04 06:47:15;;;;;;;;;;;27.50;51.50;;;;;;1900869;74;20158;-71
2020/12/04 06:49:45;;;;;;;;;;;27.40;50.00;;;;;;1898012;75;20179;-72
2020/12/04 06:52:16;;;;;;;;;;;27.40;50.10;;;;;;1902294;75;20175;-73
2020/12/04 06:54:50;;;;;;;;;;;27.40;51.40;;;;;;1901429;75;20492;-72
2020/12/04 06:57:20;;;;;;;;;;;27.50;50.90;;;;;;1903125;75;20241;-73
2020/12/04 06:59:51;;;;;;;;;;;27.50;49.30;;;;;;1907850;74;20172;-75
2020/12/04 07:02:24;;;;;;;;;;;27.50;49.50;;;;;;1905609;75;20487;-73
2020/12/04 07:04:56;;;;;;;;;;;27.60;49.50;;;;;;1920192;74;20231;-73
2020/12/04 07:07:29;;;;;;;;;;;27.60;49.20;;;;;;1916935;74;20538;-73
2020/12/04 07:10:02;;;;;;;;;;;27.70;50.00;;;;;;1917637;74;20189;-72
2020/12/04 07:12:35;;;;;;;;;;;27.70;49.30;;;;;;1891580;74;20184;-69
2020/12/04 07:15:06;;;;;;;;;;;27.70;49.10;;;;;;1874806;76;20226;-72
2020/12/04 07:17:40;;;;;;;;;;;27.70;49.60;;;;;;1864608;74;20222;-71
2020/12/04 07:20:10;;;;;;;;;;;27.70;50.60;;;;;;1867321;74;20163;-73
2020/12/04 07:22:39;;;;;;;;;;;27.70;50.30;;;;;;1825868;78;20177;-73
2020/12/04 07:25:09;;;;;;;;;;;27.70;49.70;;;;;;1839178;76;20211;-71
2020/12/04 07:27:42;;;;;;;;;;;27.70;50.20;;;;;;1845004;76;20176;-74
2020/12/04 07:30:25;;;;;;;;;;;27.60;50.80;;;;;;1873280;76;20281;-74
2020/12/04 07:32:54;;;;;;;;;;;27.60;50.90;;;;;;1855004;75;20261;-71
2020/12/04 07:35:26;;;;;;;;;;;27.50;50.30;;;;;;1868013;76;20140;-71
2020/12/04 07:38:15;;;;;;;;;;;27.50;50.50;;;;;;1868773;76;20130;-70
2020/12/04 07:40:46;;;;;;;;;;;27.50;50.40;;;;;;1883620;74;20272;-70
2020/12/04 07:43:43;;;;;;;;;;;27.50;49.80;;;;;;1887509;75;20378;-73
2020/12/04 07:46:11;;;;;;;;;;;27.50;50.00;;;;;;1906704;74;20126;-71
2020/12/04 07:48:46;;;;;;;;;;;27.40;50.60;;;;;;1917757;74;20281;-72
2020/12/04 07:51:17;;;;;;;;;;;27.30;50.20;;;;;;1925060;74;20267;-72
2020/12/04 07:53:52;;;;;;;;;;;27.20;50.90;;;;;;1919486;74;20200;-70
2020/12/04 07:56:24;;;;;;;;;;;27.20;51.10;;;;;;1917898;74;20144;-70
2020/12/04 07:58:55;;;;;;;;;;;27.20;50.90;;;;;;1915973;74;20203;-70
2020/12/04 08:01:31;;;;;;;;;;;27.20;50.40;;;;;;1919775;74;20218;-71
2020/12/04 08:04:00;;;;;;;;;;;27.10;50.30;;;;;;1918520;74;20518;-71
2020/12/04 08:06:30;;;;;;;;;;;27.10;50.40;;;;;;1914517;74;20290;-70
2020/12/04 08:09:02;;;;;;;;;;;27.10;50.70;;;;;;1918373;74;20176;-70
2020/12/04 08:11:37;;;;;;;;;;;27.20;50.90;;;;;;1913675;74;20702;-70
2020/12/04 08:14:07;;;;;;;;;;;27.20;50.90;;;;;;1921373;74;20413;-69
2020/12/04 08:16:38;;;;;;;;;;;27.10;50.80;;;;;;1905309;73;20177;-70
2020/12/04 08:19:12;;;;;;;;;;;27.10;51.00;;;;;;1916333;74;20220;-71
2020/12/04 08:21:43;;;;;;;;;;;27.10;51.00;;;;;;1913383;74;20208;-73
2020/12/04 08:24:19;;;;;;;;;;;27.00;50.90;;;;;;1907884;74;20480;-72
2020/12/04 08:26:54;;;;;;;;;;;27.00;50.80;;;;;;1881174;74;20196;-72
2020/12/04 08:29:27;;;;;;;;;;;27.00;50.40;;;;;;1911336;74;20433;-71
2020/12/04 08:32:07;;;;;;;;;;;26.90;51.00;;;;;;1917156;74;20169;-70
2020/12/04 08:34:41;;;;;;;;;;;26.90;51.20;;;;;;1914348;74;20207;-72
2020/12/04 08:37:26;;;;;;;;;;;26.90;51.30;;;;;;1907988;74;20197;-72
2020/12/04 08:40:15;;;;;;;;;;;26.90;51.40;;;;;;1910749;74;20344;-72
2020/12/04 08:42:56;;;;;;;;;;;26.80;51.10;;;;;;1924107;74;20285;-73
2020/12/04 08:45:21;;;;;;;;;;;26.80;51.10;;;;;;1870827;74;20286;-72
2020/12/04 08:48:20;;;;;;;;;;;26.80;51.40;;;;;;1922244;74;20464;-70
2020/12/04 08:50:58;;;;;;;;;;;26.80;51.30;;;;;;1906746;74;20480;-71
2020/12/04 08:53:39;;;;;;;;;;;;;;;;;;;;;
2020/12/04 08:56:12;;;;;;;;;;;26.80;51.50;;;;;;1920226;74;20196;-71
2020/12/04 08:58:43;;;;;;;;;;;26.80;51.40;;;;;;1919063;74;20260;-69
2020/12/04 09:01:14;;;;;;;;;;;26.70;51.20;;;;;;1923674;74;20165;-71
2020/12/04 09:03:45;;;;;;;;;;;26.70;51.40;;;;;;1904110;74;20203;-69
2020/12/04 09:06:16;;;;;;;;;;;26.60;51.60;;;;;;1924212;73;20192;-72
2020/12/04 09:08:48;;;;;;;;;;;26.50;51.60;;;;;;1928085;74;20236;-72
2020/12/04 09:11:17;;;;;;;;;;;26.50;51.80;;;;;;1923253;74;20137;-69
2020/12/04 09:13:48;;;;;;;;;;;26.40;52.10;;;;;;1922706;74;20446;-70
2020/12/04 09:16:22;;;;;;;;;;;26.30;52.30;;;;;;1918630;74;20165;-71
2020/12/04 09:18:52;;;;;;;;;;;26.40;52.70;;;;;;1916848;75;20176;-71
2020/12/04 09:21:22;;;;;;;;;;;26.30;52.80;;;;;;1900894;74;20193;-71
2020/12/04 09:23:52;;;;;;;;;;;26.30;53.00;;;;;;1915035;74;20255;-73
2020/12/04 09:26:25;;;;;;;;;;;26.30;53.00;;;;;;1926764;74;20272;-71
2020/12/04 09:28:55;;;;;;;;;;;26.30;52.30;;;;;;1925816;73;20578;-71
2020/12/04 09:31:25;;;;;;;;;;;26.20;52.50;;;;;;1920018;74;20197;-73
2020/12/04 09:33:55;;;;;;;;;;;26.20;52.50;;;;;;1918623;74;20862;-72
2020/12/04 09:36:27;;;;;;;;;;;26.20;52.30;;;;;;1918533;74;20783;-72
2020/12/04 09:38:57;;;;;;;;;;;26.10;52.40;;;;;;1940326;73;20308;-72
2020/12/04 09:41:27;;;;;;;;;;;26.10;53.30;;;;;;1900475;75;20130;-72
2020/12/04 09:43:58;;;;;;;;;;;26.10;52.70;;;;;;1901104;74;20206;-71
2020/12/04 09:46:29;;;;;;;;;;;26.00;52.80;;;;;;1865956;74;20305;-72
2020/12/04 09:48:59;;;;;;;;;;;26.00;53.10;;;;;;1902496;74;20158;-72
2020/12/04 09:51:28;;;;;;;;;;;26.00;53.30;;;;;;1869656;76;20229;-70
2020/12/04 09:53:58;;;;;;;;;;;26.00;53.30;;;;;;1874665;75;20236;-71
2020/12/04 09:56:30;;;;;;;;;;;26.00;53.40;;;;;;1875105;76;20238;-71
2020/12/04 09:59:00;;;;;;;;;;;26.00;53.40;;;;;;1876306;75;20196;-70
2020/12/04 10:01:30;;;;;;;;;;;26.00;53.40;;;;;;1907426;74;20211;-73
2020/12/04 10:04:00;;;;;;;;;;;25.90;53.50;;;;;;1870482;75;20231;-71
2020/12/04 10:06:30;;;;;;;;;;;25.90;53.60;;;;;;1863679;76;20156;-77
2020/12/04 10:09:00;;;;;;;;;;;25.80;53.60;;;;;;1876736;74;20250;-72
2020/12/04 10:11:30;;;;;;;;;;;25.80;53.70;;;;;;1858023;76;20189;-72
2020/12/04 10:13:59;;;;;;;;;;;25.80;53.80;;;;;;1895444;74;20124;-71
2020/12/04 10:16:29;;;;;;;;;;;25.80;53.70;;;;;;1886156;76;20275;-71
2020/12/04 10:18:59;;;;;;;;;;;25.80;53.70;;;;;;1854874;76;20210;-72
2020/12/04 10:21:30;;;;;;;;;;;25.80;53.70;;;;;;1820599;78;20129;-80
2020/12/04 10:24:02;;;;;;;;;;;25.80;53.80;;;;;;1835621;78;20262;-85
2020/12/04 10:26:34;;;;;;;;;;;25.70;53.90;;;;;;1812096;78;20242;-85
2020/12/04 10:29:04;;;;;;;;;;;25.60;54.00;;;;;;1848125;76;20216;-82
2020/12/04 10:31:35;;;;;;;;;;;25.60;54.20;;;;;;1834196;77;20219;-81
2020/12/04 10:34:06;;;;;;;;;;;25.60;55.10;;;;;;1792531;79;20293;-77
2020/12/04 10:36:38;;;;;;;;;;;25.60;54.40;;;;;;1816947;77;20308;-75
2020/12/04 10:39:11;;;;;;;;;;;25.50;54.50;;;;;;1824015;77;20184;-82
2020/12/04 10:41:42;;;;;;;;;;;25.50;54.60;;;;;;1857955;76;20170;-82
2020/12/04 10:44:12;;;;;;;;;;;25.50;54.80;;;;;;1826624;78;20252;-82
2020/12/04 10:46:43;;;;;;;;;;;25.50;54.90;;;;;;1833929;78;20219;-83
2020/12/04 10:49:13;;;;;;;;;;;25.50;55.00;;;;;;1792074;79;20231;-83
2020/12/04 10:51:42;;;;;;;;;;;25.40;55.00;;;;;;1861925;76;20263;-83
2020/12/04 10:54:12;;;;;;;;;;;25.40;55.10;;;;;;1865651;75;20223;-83
2020/12/04 10:56:42;;;;;;;;;;;25.40;55.20;;;;;;1862689;75;20501;-83
2020/12/04 10:59:12;;;;;;;;;;;25.40;55.40;;;;;;1826149;77;20144;-83
2020/12/04 11:01:48;;;;;;;;;;;25.30;55.50;;;;;;1854326;75;20289;-84
2020/12/04 11:07:12;;;;;;;;;;;25.30;55.70;;;;;;1822013;78;20298;-84
2020/12/04 11:09:43;;;;;;;;;;;25.20;55.70;;;;;;1812552;78;20306;-84
2020/12/04 11:12:14;;;;;;;;;;;25.20;55.80;;;;;;1821306;78;20184;-84
2020/12/04 11:14:44;;;;;;;;;;;25.20;56.00;;;;;;1813056;79;20137;-84
2020/12/04 11:17:14;;;;;;;;;;;25.20;56.00;;;;;;1845322;76;20187;-83
2020/12/04 11:19:43;;;;;;;;;;;25.10;56.20;;;;;;1814690;78;20207;-83
2020/12/04 11:22:14;;;;;;;;;;;25.10;56.30;;;;;;1847492;76;20177;-82
2020/12/04 11:24:43;;;;;;;;;;;25.10;56.50;;;;;;1814010;78;20200;-84
2020/12/04 11:27:13;;;;;;;;;;;25.00;56.60;;;;;;1839385;76;20162;-84
2020/12/04 11:29:43;;;;;;;;;;;25.00;56.70;;;;;;1818677;77;20158;-84
2020/12/04 11:32:13;;;;;;;;;;;25.00;56.80;;;;;;1846757;76;20394;-84
2020/12/04 11:34:43;;;;;;;;;;;24.90;56.90;;;;;;1845867;76;20239;-84
2020/12/04 11:37:13;;;;;;;;;;;24.90;57.00;;;;;;1843820;76;20202;-83
2020/12/04 11:39:43;;;;;;;;;;;24.90;57.10;;;;;;1810267;78;20196;-84
2020/12/04 11:42:12;;;;;;;;;;;24.80;57.20;;;;;;1788691;78;20431;-83
2020/12/04 11:44:42;;;;;;;;;;;24.80;57.30;;;;;;1789403;78;20237;-82
2020/12/04 11:47:12;;;;;;;;;;;24.80;57.50;;;;;;1846634;76;20228;-83
2020/12/04 11:49:42;;;;;;;;;;;24.80;57.70;;;;;;1815443;78;20223;-83
2020/12/04 11:52:12;;;;;;;;;;;24.70;57.80;;;;;;1844888;76;20202;-84
2020/12/04 11:54:47;;;;;;;;;;;24.80;57.80;;;;;;1845644;76;20174;-84
2020/12/04 11:57:28;;;;;;;;;;;24.70;57.80;;;;;;1811989;78;20491;-84
2020/12/04 12:00:01;;;;;;;;;;;24.70;57.90;;;;;;1846056;76;20267;-83
2020/12/04 12:02:32;;;;;;;;;;;24.60;57.80;;;;;;1844451;76;20198;-83
2020/12/04 12:05:01;;;;;;;;;;;24.60;57.90;;;;;;1814552;77;20172;-83
2020/12/04 12:07:32;;;;;;;;;;;24.60;57.90;;;;;;1871536;74;20817;-83
2020/12/04 12:10:03;;;;;;;;;;;24.60;58.00;;;;;;1872969;76;20167;-82
2020/12/04 12:12:33;;;;;;;;;;;24.60;58.00;;;;;;1872838;76;20215;-84
2020/12/04 12:15:03;;;;;;;;;;;24.50;57.90;;;;;;1875544;76;20536;-84
2020/12/04 12:17:33;;;;;;;;;;;24.50;58.00;;;;;;1840141;77;20209;-84
2020/12/04 12:20:03;;;;;;;;;;;24.50;58.10;;;;;;1874247;74;20256;-83
2020/12/04 12:22:34;;;;;;;;;;;24.40;58.20;;;;;;1874842;75;20164;-84
2020/12/04 12:25:04;;;;;;;;;;;24.40;58.20;;;;;;1873544;76;20163;-85
2020/12/04 12:27:34;;;;;;;;;;;24.40;58.40;;;;;;1866412;74;20162;-85
2020/12/04 12:30:04;;;;;;;;;;;24.30;58.30;;;;;;1878718;74;20175;-84
2020/12/04 12:32:35;;;;;;;;;;;24.30;58.50;;;;;;1870565;74;20266;-83
2020/12/04 12:35:11;;;;;;;;;;;24.30;58.60;;;;;;1872669;76;20252;-83
2020/12/04 12:37:37;;;;;;;;;;;24.30;58.70;;;;;;1867982;74;20250;-86
2020/12/04 12:40:09;;;;;;;;;;;24.30;58.60;;;;;;1880786;76;20249;-82
2020/12/04 12:42:39;;;;;;;;;;;24.30;58.60;;;;;;1877845;76;20172;-83
2020/12/04 12:45:16;;;;;;;;;;;24.20;58.70;;;;;;1841833;76;20238;-85
2020/12/04 12:47:44;;;;;;;;;;;24.20;58.70;;;;;;1847901;76;20234;-85
2020/12/04 12:50:18;;;;;;;;;;;24.10;58.80;;;;;;1842478;76;20464;-82
2020/12/04 12:52:49;;;;;;;;;;;24.10;58.90;;;;;;1813927;77;20168;-83
2020/12/04 12:55:19;;;;;;;;;;;24.10;59.00;;;;;;1873049;76;20412;-83
2020/12/04 12:57:49;;;;;;;;;;;24.10;59.10;;;;;;1872140;74;20160;-84
2020/12/04 13:00:20;;;;;;;;;;;24.00;59.00;;;;;;1875392;74;20252;-83
2020/12/04 13:02:51;;;;;;;;;;;24.00;59.20;;;;;;1886663;74;20223;-84
2020/12/04 13:07:55;;;;;;;;;;;23.90;59.30;;;;;;1879742;74;20213;-82
2020/12/04 13:10:28;;;;;;;;;;;23.90;59.30;;;;;;1832458;78;20678;-81
2020/12/04 13:12:58;;;;;;;;;;;23.90;59.40;;;;;;1809283;77;20242;-83
2020/12/04 13:15:28;;;;;;;;;;;23.80;59.60;;;;;;1876535;76;20337;-82
2020/12/04 13:18:01;;;;;;;;;;;23.80;59.80;;;;;;1861920;74;20296;-82
2020/12/04 13:20:30;;;;;;;;;;;23.70;59.90;;;;;;1875706;74;20455;-82
2020/12/04 13:25:47;;;;;;;;;;;23.60;59.90;;;;;;1870337;74;20270;-85
2020/12/04 13:28:20;;;;;;;;;;;23.70;60.00;;;;;;1849501;76;20188;-85
2020/12/04 13:30:50;;;;;;;;;;;23.60;60.00;;;;;;1874132;74;20184;-85
2020/12/04 13:33:20;;;;;;;;;;;23.50;60.00;;;;;;1861588;74;20234;-84
2020/12/04 13:36:05;;;;;;;;;;;23.50;60.00;;;;;;1840405;76;20194;-83
2020/12/04 13:38:35;;;;;;;;;;;23.50;60.30;;;;;;1878431;75;20187;-84
2020/12/04 13:41:05;;;;;;;;;;;23.40;60.40;;;;;;1872947;74;20219;-83
2020/12/04 13:43:36;;;;;;;;;;;23.40;60.60;;;;;;1832661;76;20215;-84
2020/12/04 13:46:07;;;;;;;;;;;23.30;60.60;;;;;;1853248;76;20284;-85
2020/12/04 13:48:37;;;;;;;;;;;23.30;60.80;;;;;;1845217;76;20213;-82
2020/12/04 13:51:15;;;;;;;;;;;23.20;60.80;;;;;;1839838;77;20287;-82
2020/12/04 13:53:49;;;;;;;;;;;23.20;61.00;;;;;;1850955;76;20225;-84
2020/12/04 13:56:19;;;;;;;;;;;23.10;61.10;;;;;;1865970;76;20689;-83
2020/12/04 13:58:49;;;;;;;;;;;23.10;61.20;;;;;;1866241;76;20461;-83
2020/12/04 14:01:20;;;;;;;;;;;23.00;62.30;;;;;;1868650;76;20253;-85
2020/12/04 14:03:54;;;;;;;;;;;23.00;61.70;;;;;;1840934;76;20204;-85
2020/12/04 14:06:22;;;;;;;;;;;23.00;62.00;;;;;;1912630;74;20201;-85
2020/12/04 14:08:52;;;;;;;;;;;22.90;62.00;;;;;;1880459;74;20513;-84
2020/12/04 14:11:25;;;;;;;;;;;22.90;62.40;;;;;;1882307;74;20218;-83
2020/12/04 14:13:55;;;;;;;;;;;22.80;62.50;;;;;;1870128;74;20173;-81
2020/12/04 14:16:25;;;;;;;;;;;22.80;62.70;;;;;;1843207;76;20215;-81
2020/12/04 14:18:55;;;;;;;;;;;22.80;62.80;;;;;;1812217;77;20230;-80
2020/12/04 14:21:28;;;;;;;;;;;22.70;62.90;;;;;;1807227;79;20475;-81
2020/12/04 14:24:01;;;;;;;;;;;22.70;62.60;;;;;;1804987;77;20199;-84
2020/12/04 14:26:31;;;;;;;;;;;22.70;62.40;;;;;;1845869;76;20221;-82
2020/12/04 14:29:01;;;;;;;;;;;22.60;62.00;;;;;;1869278;76;20530;-80
2020/12/04 14:31:50;;;;;;;;;;;22.60;61.80;;;;;;1867416;76;20143;-78
2020/12/04 14:34:20;;;;;;;;;;;22.60;61.70;;;;;;1876168;75;20479;-77
2020/12/04 14:36:50;;;;;;;;;;;22.50;61.50;;;;;;1855830;76;20123;-78
2020/12/04 14:39:20;;;;;;;;;;;22.50;61.60;;;;;;1869335;75;20258;-78
2020/12/04 14:41:50;;;;;;;;;;;22.40;61.60;;;;;;1894888;75;20236;-78
2020/12/04 14:44:19;;;;;;;;;;;22.40;61.60;;;;;;1912214;74;20194;-76
2020/12/04 14:46:50;;;;;;;;;;;22.40;61.80;;;;;;1908983;74;20545;-76
2020/12/04 14:49:21;;;;;;;;;;;22.40;61.80;;;;;;1884835;75;20252;-77
2020/12/04 14:51:50;;;;;;;;;;;22.30;61.90;;;;;;1829948;77;20262;-77
2020/12/04 14:54:20;;;;;;;;;;;22.30;62.00;;;;;;1855544;75;20199;-78